Time;durP1;ratioP1;P1;durP2;ratioP2;P2;SDS_P1;SDS_P2;PMS_P1;PMS_P2;Temp;Humidity;BMP_temperature;BMP_pressure;BME280_temperature;BME280_humidity;BME280_pressure;Samples;Min_cycle;Max_cycle;Signal;HPM_P1;HPM_P2
2024/01/15 00:00:27;;;;;;;0.57;0.57;;;;;;;1.04;89.68;94112.31;4372847;32;20224;-59
2024/01/15 00:02:52;;;;;;;0.90;0.90;;;;;;;1.03;90.45;94115.22;4323845;32;20295;-59
2024/01/15 00:05:19;;;;;;;2.07;1.47;;;;;;;1.01;90.39;94115.47;4335636;32;20181;-59
2024/01/15 00:07:44;;;;;;;0.80;0.80;;;;;;;1.08;90.38;94107.34;4308868;32;20250;-59
2024/01/15 00:10:10;;;;;;;1.13;1.13;;;;;;;1.19;89.86;94098.47;4343541;32;20278;-59
2024/01/15 00:12:38;;;;;;;1.53;1.43;;;;;;;1.20;89.98;94099.25;4369117;32;20180;-59
2024/01/15 00:15:04;;;;;;;1.53;1.30;;;;;;;1.15;90.11;94112.31;4341161;32;20365;-59
2024/01/15 00:17:30;;;;;;;2.03;1.93;;;;;;;1.18;90.06;94117.78;4322459;32;20310;-60
2024/01/15 00:19:56;;;;;;;1.03;1.03;;;;;;;1.16;90.17;94125.09;4340306;32;20323;-59
2024/01/15 00:22:26;;;;;;;1.27;1.27;;;;;;;1.11;90.12;94117.28;4369172;32;20199;-59
2024/01/15 00:24:52;;;;;;;1.23;1.23;;;;;;;1.03;90.06;94118.59;4346273;32;20352;-59
2024/01/15 00:27:18;;;;;;;1.10;1.10;;;;;;;1.11;89.51;94116.50;4347922;32;20305;-59
2024/01/15 00:29:44;;;;;;;1.67;0.93;;;;;;;1.02;90.01;94117.03;4327884;32;20243;-59
2024/01/15 00:32:10;;;;;;;1.65;1.23;;;;;;;1.16;90.08;94122.50;4359935;32;20188;-61
2024/01/15 00:34:35;;;;;;;1.07;1.07;;;;;;;1.07;89.58;94121.44;4363003;32;20189;-64
2024/01/15 00:37:02;;;;;;;2.23;1.97;;;;;;;1.02;90.31;94118.88;4353690;32;20205;-59
2024/01/15 00:39:29;;;;;;;1.52;1.30;;;;;;;1.08;90.40;94130.84;4363118;32;20214;-60
2024/01/15 00:41:55;;;;;;;2.28;2.17;;;;;;;1.24;89.50;94129.03;4343512;32;20271;-59
2024/01/15 00:44:23;;;;;;;1.50;1.50;;;;;;;1.20;89.71;94128.75;4344841;32;20188;-59
2024/01/15 00:46:49;;;;;;;1.87;1.77;;;;;;;1.21;89.61;94137.38;4370831;32;20232;-60
2024/01/15 00:49:15;;;;;;;2.17;1.70;;;;;;;1.34;89.76;94142.03;4358138;32;20280;-59
2024/01/15 00:51:41;;;;;;;1.25;1.25;;;;;;;1.37;89.13;94142.31;4338771;32;20239;-59
2024/01/15 00:54:07;;;;;;;2.17;1.23;;;;;;;1.37;88.08;94147.53;4336460;32;20189;-59
2024/01/15 00:56:33;;;;;;;2.27;2.00;;;;;;;1.46;87.77;94144.34;4351339;32;20351;-59
2024/01/15 00:58:58;;;;;;;1.37;1.37;;;;;;;1.28;87.76;94154.31;4338181;32;20317;-59
2024/01/15 01:01:24;;;;;;;3.00;1.80;;;;;;;1.31;87.53;94150.41;4366143;32;20203;-59
2024/01/15 01:03:49;;;;;;;7.60;2.17;;;;;;;1.17;87.52;94163.22;4356464;32;20324;-59
2024/01/15 01:06:17;;;;;;;1.73;1.63;;;;;;;1.18;88.18;94153.56;4338833;32;20188;-59
2024/01/15 01:08:47;;;;;;;0.87;0.87;;;;;;;1.21;87.05;94164.28;4336065;32;20260;-59
2024/01/15 01:11:15;;;;;;;1.92;1.83;;;;;;;1.09;87.21;94174.19;4345436;32;20272;-59
2024/01/15 01:13:42;;;;;;;3.35;3.05;;;;;;;0.96;86.62;94169.50;4336520;32;20185;-59
2024/01/15 01:16:09;;;;;;;1.75;1.65;;;;;;;0.81;86.88;94172.13;4354031;32;20184;-59
2024/01/15 01:18:35;;;;;;;1.60;1.60;;;;;;;0.74;86.93;94174.97;4374313;32;20188;-59
2024/01/15 01:21:02;;;;;;;2.67;1.87;;;;;;;0.64;86.51;94165.31;4320011;32;20253;-58
2024/01/15 01:23:28;;;;;;;2.47;1.95;;;;;;;0.49;86.34;94170.50;4367940;32;20255;-60
2024/01/15 01:25:54;;;;;;;1.57;1.47;;;;;;;0.51;85.59;94170.25;4341617;32;20281;-59
2024/01/15 01:28:21;;;;;;;1.60;1.50;;;;;;;0.46;85.36;94178.84;4345895;32;20333;-59
2024/01/15 01:30:47;;;;;;;4.15;2.65;;;;;;;0.40;85.04;94185.13;4368744;32;20185;-60
2024/01/15 01:33:13;;;;;;;4.83;3.43;;;;;;;0.30;83.68;94185.09;4361714;32;20334;-60
2024/01/15 01:35:44;;;;;;;4.22;2.53;;;;;;;0.41;84.09;94168.44;4373223;32;20185;-60
2024/01/15 01:38:12;;;;;;;2.45;2.35;;;;;;;0.41;83.27;94191.91;4371961;32;20193;-59
2024/01/15 01:40:38;;;;;;;1.87;1.70;;;;;;;0.45;82.82;94187.72;4363213;32;20203;-59
2024/01/15 01:43:09;;;;;;;3.42;3.22;;;;;;;0.42;82.66;94188.22;4347365;32;20215;-59
2024/01/15 01:45:36;;;;;;;1.50;1.50;;;;;;;0.10;82.13;94182.41;4349125;32;20267;-59
2024/01/15 01:48:04;;;;;;;4.40;3.25;;;;;;;0.24;81.74;94188.72;4348614;32;20185;-60
2024/01/15 01:50:31;;;;;;;1.83;1.80;;;;;;;0.26;81.58;94186.63;4373734;32;20236;-59
2024/01/15 01:52:57;;;;;;;2.60;2.45;;;;;;;0.38;82.64;94189.03;4367146;32;20207;-60
2024/01/15 01:55:27;;;;;;;1.40;1.40;;;;;;;0.31;80.47;94181.44;4361824;32;20219;-59
2024/01/15 01:57:54;;;;;;;2.80;2.70;;;;;;;0.24;81.13;94186.09;4339867;32;20185;-59
2024/01/15 02:00:25;;;;;;;1.27;1.12;;;;;;;0.16;81.04;94189.22;4369643;32;20181;-59
2024/01/15 02:02:52;;;;;;;2.50;2.33;;;;;;;0.09;81.06;94189.47;4362805;32;20235;-60
2024/01/15 02:05:20;;;;;;;2.50;1.85;;;;;;;-0.08;81.58;94194.88;4376477;32;20180;-59
2024/01/15 02:07:46;;;;;;;1.30;1.30;;;;;;;0.07;81.74;94190.75;4346127;32;20205;-59
2024/01/15 02:10:13;;;;;;;1.17;1.17;;;;;;;0.12;81.75;94178.53;4342316;32;20205;-58
2024/01/15 02:12:39;;;;;;;2.25;2.15;;;;;;;-0.07;82.28;94186.03;4370212;32;20188;-59
2024/01/15 02:15:06;;;;;;;2.42;2.33;;;;;;;0.02;81.54;94190.72;4355402;32;20185;-59
2024/01/15 02:17:33;;;;;;;1.95;1.83;;;;;;;0.02;81.47;94198.53;4366705;32;20189;-59
2024/01/15 02:19:58;;;;;;;2.47;2.28;;;;;;;0.04;81.06;94197.25;4364944;32;20199;-60
2024/01/15 02:22:25;;;;;;;1.50;1.50;;;;;;;0.06;80.51;94194.41;4376590;32;20227;-59
2024/01/15 02:24:51;;;;;;;3.33;3.03;;;;;;;-0.04;81.25;94195.94;4351536;32;20228;-59
2024/01/15 02:27:17;;;;;;;2.17;1.90;;;;;;;0.01;81.09;94205.56;4357523;32;20222;-59
2024/01/15 02:29:44;;;;;;;2.25;2.15;;;;;;;-0.12;81.10;94204.22;4348161;32;20214;-59
2024/01/15 02:32:10;;;;;;;1.58;1.48;;;;;;;-0.06;81.25;94192.03;4378915;32;20214;-60
2024/01/15 02:34:35;;;;;;;1.77;1.67;;;;;;;-0.15;82.08;94183.88;4365166;32;20184;-61
2024/01/15 02:37:01;;;;;;;2.93;2.80;;;;;;;-0.23;81.91;94209.66;4367127;32;20195;-59
2024/01/15 02:39:28;;;;;;;2.87;2.67;;;;;;;-0.24;82.32;94210.69;4348298;32;20233;-59
2024/01/15 02:41:56;;;;;;;2.22;2.12;;;;;;;-0.25;82.87;94215.13;4341249;32;20232;-59
2024/01/15 02:44:22;;;;;;;1.95;1.90;;;;;;;-0.26;83.24;94213.56;4340794;32;20237;-59
2024/01/15 02:46:48;;;;;;;2.33;2.22;;;;;;;-0.26;83.78;94216.16;4355055;32;20200;-60
2024/01/15 02:49:19;;;;;;;3.20;2.70;;;;;;;-0.32;83.80;94224.97;4353932;32;20203;-59
2024/01/15 02:51:45;;;;;;;3.92;3.35;;;;;;;-0.18;83.34;94220.88;4315303;32;20193;-59
2024/01/15 02:54:10;;;;;;;1.07;1.07;;;;;;;-0.21;83.18;94228.44;4305128;32;20220;-59
2024/01/15 02:56:36;;;;;;;3.50;2.85;;;;;;;-0.33;83.78;94226.00;4384140;32;20188;-59
2024/01/15 02:59:02;;;;;;;1.93;1.83;;;;;;;-0.27;83.75;94232.03;4380905;32;20233;-59
2024/01/15 03:01:27;;;;;;;1.50;1.50;;;;;;;-0.21;83.50;94229.22;4350111;32;20181;-59
2024/01/15 03:03:52;;;;;;;2.43;2.30;;;;;;;-0.14;83.58;94218.56;4375978;32;20232;-59
2024/01/15 03:06:19;;;;;;;4.28;1.77;;;;;;;-0.38;84.15;94215.56;4371691;32;20188;-59
2024/01/15 03:08:44;;;;;;;2.03;1.90;;;;;;;-0.42;84.78;94222.34;4359264;32;20254;-59
2024/01/15 03:11:10;;;;;;;3.57;3.27;;;;;;;-0.35;83.83;94222.87;4337688;32;20225;-59
2024/01/15 03:13:37;;;;;;;3.40;2.40;;;;;;;-0.39;83.99;94208.78;4350415;32;20200;-64
2024/01/15 03:16:05;;;;;;;2.28;2.17;;;;;;;-0.36;84.11;94209.06;4372957;32;20305;-59
2024/01/15 03:18:32;;;;;;;1.52;1.42;;;;;;;-0.34;84.17;94211.41;4363100;32;20195;-59
2024/01/15 03:21:01;;;;;;;1.67;1.58;;;;;;;-0.30;83.67;94220.31;4366317;32;20220;-59
2024/01/15 03:23:30;;;;;;;3.95;2.87;;;;;;;-0.35;83.83;94210.63;4344611;32;20253;-59
2024/01/15 03:25:55;;;;;;;2.35;2.25;;;;;;;-0.46;83.84;94197.81;4345492;32;20204;-59
2024/01/15 03:28:20;;;;;;;3.77;2.53;;;;;;;-0.51;83.88;94198.56;4339079;32;20213;-59
2024/01/15 03:30:46;;;;;;;2.87;2.67;;;;;;;-0.39;83.89;94193.94;4362966;32;20189;-59
2024/01/15 03:33:12;;;;;;;3.03;2.70;;;;;;;-0.24;82.90;94202.88;4349407;32;20218;-60
2024/01/15 03:35:40;;;;;;;1.60;1.50;;;;;;;-0.10;81.77;94198.78;4368854;32;20189;-59
2024/01/15 03:38:05;;;;;;;1.75;1.65;;;;;;;-0.18;82.04;94194.03;4366554;32;20224;-59
2024/01/15 03:40:31;;;;;;;1.80;1.70;;;;;;;-0.12;81.70;94195.63;4361882;32;20242;-58
2024/01/15 03:42:58;;;;;;;1.30;1.20;;;;;;;-0.21;80.92;94205.78;4359532;32;20203;-59
2024/01/15 03:45:25;;;;;;;1.45;1.45;;;;;;;-0.29;81.51;94206.25;4370835;32;20214;-59
2024/01/15 03:47:51;;;;;;;2.12;1.90;;;;;;;-0.27;81.74;94214.59;4369680;32;20264;-59
2024/01/15 03:50:17;;;;;;;1.87;1.77;;;;;;;-0.31;81.42;94215.34;4336935;32;20256;-59
2024/01/15 03:52:43;;;;;;;1.80;1.80;;;;;;;-0.24;81.64;94218.53;4366193;32;20215;-59
2024/01/15 03:55:09;;;;;;;1.98;1.87;;;;;;;-0.28;81.44;94210.41;4365110;32;20279;-60
2024/01/15 03:57:34;;;;;;;2.10;2.00;;;;;;;-0.20;81.33;94202.09;4385501;32;20207;-59
2024/01/15 03:59:59;;;;;;;2.13;2.03;;;;;;;-0.17;80.94;94204.19;4338175;32;20177;-59
2024/01/15 04:02:25;;;;;;;3.13;2.10;;;;;;;-0.29;81.10;94195.81;4372468;32;20248;-59
2024/01/15 04:04:51;;;;;;;1.50;1.45;;;;;;;-0.34;81.42;94201.00;4362160;32;20229;-59
2024/01/15 04:07:16;;;;;;;1.47;0.73;;;;;;;-0.25;81.07;94196.88;4346268;32;20261;-59
2024/01/15 04:09:41;;;;;;;1.53;1.43;;;;;;;-0.33;81.57;94191.38;4336248;32;20239;-59
2024/01/15 04:12:07;;;;;;;2.03;1.93;;;;;;;-0.24;81.27;94179.44;4371219;32;20181;-59
2024/01/15 04:14:32;;;;;;;2.20;2.07;;;;;;;-0.31;81.25;94177.06;4356873;32;20247;-59
2024/01/15 04:16:59;;;;;;;3.43;2.03;;;;;;;-0.33;80.94;94186.94;4349120;32;20188;-60
2024/01/15 04:19:27;;;;;;;2.45;2.25;;;;;;;-0.22;80.62;94182.56;4364964;32;20185;-59
2024/01/15 04:21:53;;;;;;;2.10;1.95;;;;;;;-0.23;80.74;94176.59;4354570;32;20177;-59
2024/01/15 04:24:20;;;;;;;1.98;1.87;;;;;;;-0.17;80.53;94191.19;4358764;32;20254;-59
2024/01/15 04:26:47;;;;;;;1.17;1.17;;;;;;;-0.24;80.24;94172.41;4370782;32;20240;-59
2024/01/15 04:29:13;;;;;;;4.32;1.10;;;;;;;-0.25;80.30;94176.03;4378447;32;20198;-59
2024/01/15 04:31:38;;;;;;;1.62;1.58;;;;;;;-0.28;80.51;94183.59;4348286;32;20275;-59
2024/01/15 04:34:04;;;;;;;1.80;1.70;;;;;;;-0.11;80.25;94190.16;4369489;32;20196;-60
2024/01/15 04:36:29;;;;;;;2.90;1.30;;;;;;;-0.06;79.78;94192.03;4358443;32;20257;-58
2024/01/15 04:38:55;;;;;;;1.37;1.27;;;;;;;-0.19;80.19;94187.25;4373692;32;20249;-58
2024/01/15 04:41:22;;;;;;;2.50;0.98;;;;;;;-0.06;79.89;94192.03;4359996;32;20229;-59
2024/01/15 04:43:47;;;;;;;2.37;2.28;;;;;;;-0.06;80.01;94192.81;4360611;32;20185;-59
2024/01/15 04:46:12;;;;;;;2.57;2.47;;;;;;;-0.08;80.64;94189.66;4356573;32;20223;-59
2024/01/15 04:48:39;;;;;;;1.77;1.50;;;;;;;0.08;79.83;94179.28;4363091;32;20369;-59
2024/01/15 04:51:06;;;;;;;2.37;2.15;;;;;;;-0.05;79.62;94178.72;4366692;32;20236;-59
2024/01/15 04:53:34;;;;;;;2.33;2.12;;;;;;;-0.20;80.16;94185.69;4335611;32;20239;-59
2024/01/15 04:56:00;;;;;;;0.93;0.93;;;;;;;-0.16;80.25;94178.94;4364517;32;20184;-59
2024/01/15 04:58:27;;;;;;;2.33;2.12;;;;;;;-0.13;80.18;94191.47;4372917;32;20276;-60
2024/01/15 05:00:54;;;;;;;1.57;1.47;;;;;;;-0.05;79.97;94188.38;4363833;32;20203;-59
2024/01/15 05:03:20;;;;;;;1.80;1.50;;;;;;;-0.11;80.18;94179.75;4362287;32;20398;-59
2024/01/15 05:05:45;;;;;;;1.03;1.03;;;;;;;-0.29;81.30;94188.00;4341421;32;20247;-59
2024/01/15 05:08:10;;;;;;;1.37;1.37;;;;;;;-0.19;80.78;94190.66;4362404;32;20242;-59
2024/01/15 05:10:37;;;;;;;1.97;1.87;;;;;;;-0.18;80.55;94187.00;4374462;32;20192;-62
2024/01/15 05:13:04;;;;;;;2.08;1.98;;;;;;;-0.25;80.35;94189.06;4341466;32;20220;-59
2024/01/15 05:15:30;;;;;;;2.28;1.98;;;;;;;-0.26;80.85;94171.88;4309037;32;20209;-59
2024/01/15 05:17:56;;;;;;;2.22;1.45;;;;;;;-0.13;80.46;94160.97;4348525;32;20255;-59
2024/01/15 05:20:24;;;;;;;1.35;1.35;;;;;;;-0.13;80.21;94176.59;4367117;32;20180;-59
2024/01/15 05:22:49;;;;;;;1.80;1.70;;;;;;;-0.24;80.74;94180.22;4363688;32;20168;-59
2024/01/15 05:25:15;;;;;;;0.90;0.90;;;;;;;-0.20;80.58;94181.25;4342264;32;20235;-60
2024/01/15 05:27:41;;;;;;;1.03;1.03;;;;;;;-0.22;80.37;94172.16;4370723;32;20184;-59
2024/01/15 05:30:13;;;;;;;0.75;0.75;;;;;;;-0.30;81.17;94176.00;4349333;32;20204;-64
2024/01/15 05:32:40;;;;;;;1.27;1.20;;;;;;;-0.23;80.25;94186.22;4370566;32;20184;-59
2024/01/15 05:35:08;;;;;;;1.33;1.25;;;;;;;-0.09;79.90;94182.88;4324952;32;20227;-59
2024/01/15 05:37:33;;;;;;;2.47;1.50;;;;;;;-0.21;80.49;94190.12;4336785;32;20185;-59
2024/01/15 05:39:58;;;;;;;1.27;1.27;;;;;;;-0.07;80.45;94177.41;4314247;32;20203;-59
2024/01/15 05:42:26;;;;;;;2.47;1.80;;;;;;;-0.13;80.31;94179.22;4366255;32;20196;-60
2024/01/15 05:44:53;;;;;;;0.85;0.85;;;;;;;-0.12;80.02;94180.00;4370702;32;20208;-59
2024/01/15 05:47:19;;;;;;;2.28;2.10;;;;;;;-0.05;79.83;94176.13;4359518;32;20181;-59
2024/01/15 05:49:45;;;;;;;1.40;1.35;;;;;;;-0.11;80.12;94174.53;4375856;32;20192;-59
2024/01/15 05:52:11;;;;;;;2.87;1.63;;;;;;;-0.25;80.63;94178.66;4357578;32;20339;-59
2024/01/15 05:54:36;;;;;;;1.42;1.42;;;;;;;-0.09;79.99;94174.28;4350178;32;20207;-59
2024/01/15 05:57:02;;;;;;;1.47;1.43;;;;;;;-0.17;79.61;94183.34;4350213;32;20232;-59
2024/01/15 05:59:31;;;;;;;0.83;0.83;;;;;;;-0.12;79.67;94183.38;4359721;32;20203;-60
2024/01/15 06:01:57;;;;;;;2.35;1.95;;;;;;;-0.28;80.34;94184.38;4366187;32;20275;-59
2024/01/15 06:04:22;;;;;;;0.83;0.83;;;;;;;-0.30;80.65;94186.44;4317803;32;20201;-59
2024/01/15 06:06:52;;;;;;;1.20;1.20;;;;;;;-0.38;80.20;94184.31;4363215;32;20200;-59
2024/01/15 06:09:17;;;;;;;6.55;2.17;;;;;;;-0.30;79.92;94175.22;4358031;32;20177;-59
2024/01/15 06:11:43;;;;;;;1.57;1.47;;;;;;;-0.31;80.32;94178.87;4336851;32;20251;-59
2024/01/15 06:14:09;;;;;;;1.60;1.50;;;;;;;-0.11;79.59;94177.13;4329779;32;20201;-59
2024/01/15 06:16:37;;;;;;;4.65;1.98;;;;;;;-0.23;79.73;94175.78;4362283;32;20275;-58
2024/01/15 06:19:03;;;;;;;1.48;1.42;;;;;;;-0.21;79.88;94177.13;4332957;32;20228;-59
2024/01/15 06:21:30;;;;;;;0.97;0.97;;;;;;;-0.25;80.13;94189.06;4329561;32;20244;-59
2024/01/15 06:23:58;;;;;;;1.62;1.37;;;;;;;-0.28;79.96;94179.16;4318296;32;20215;-59
2024/01/15 06:26:28;;;;;;;3.30;1.60;;;;;;;-0.33;79.76;94178.34;4346067;32;20185;-59
2024/01/15 06:28:53;;;;;;;1.33;1.23;;;;;;;-0.33;80.23;94184.34;4296413;32;20193;-58
2024/01/15 06:31:19;;;;;;;1.30;1.30;;;;;;;-0.12;79.56;94180.78;4361916;32;20223;-57
2024/01/15 06:33:47;;;;;;;1.03;1.03;;;;;;;-0.34;79.77;94185.37;4344510;32;20192;-59
2024/01/15 06:36:12;;;;;;;1.17;1.17;;;;;;;-0.37;80.10;94183.25;4329960;32;20247;-59
2024/01/15 06:38:37;;;;;;;1.57;1.57;;;;;;;-0.24;79.36;94184.66;4362667;32;20207;-59
2024/01/15 06:41:04;;;;;;;2.00;1.90;;;;;;;-0.24;78.91;94188.03;4370840;32;20306;-58
2024/01/15 06:43:29;;;;;;;0.70;0.70;;;;;;;-0.23;78.96;94187.00;4364118;32;20188;-59
2024/01/15 06:45:56;;;;;;;2.07;1.97;;;;;;;-0.15;79.01;94183.09;4356560;32;20219;-60
2024/01/15 06:48:21;;;;;;;1.15;1.15;;;;;;;-0.23;79.23;94176.59;4373707;32;20232;-60
2024/01/15 06:50:47;;;;;;;1.37;1.27;;;;;;;-0.14;79.26;94185.47;4349925;32;20232;-59
2024/01/15 06:53:12;;;;;;;0.77;0.77;;;;;;;-0.11;79.70;94177.13;4370014;32;20189;-59
2024/01/15 06:55:40;;;;;;;1.10;1.10;;;;;;;-0.05;79.19;94183.94;4371280;32;20188;-59
2024/01/15 06:58:05;;;;;;;1.48;1.48;;;;;;;0.02;78.79;94177.69;4353506;32;20323;-59
2024/01/15 07:00:32;;;;;;;1.00;1.00;;;;;;;-0.07;78.79;94190.44;4349213;32;20197;-59
2024/01/15 07:02:58;;;;;;;1.95;1.55;;;;;;;-0.12;79.08;94187.81;4382018;32;20181;-58
2024/01/15 07:05:24;;;;;;;1.10;1.10;;;;;;;-0.10;78.95;94186.53;4345317;32;20192;-59
2024/01/15 07:07:51;;;;;;;1.87;1.77;;;;;;;-0.26;79.73;94192.72;4302120;32;20372;-59
2024/01/15 07:10:18;;;;;;;1.05;1.05;;;;;;;-0.10;79.38;94185.75;4363834;32;20223;-59
2024/01/15 07:12:44;;;;;;;1.80;1.30;;;;;;;-0.09;79.50;94188.09;4364044;32;20187;-59
2024/01/15 07:15:09;;;;;;;1.10;1.10;;;;;;;-0.05;79.72;94191.75;4337784;32;20204;-59
2024/01/15 07:17:39;;;;;;;3.20;2.67;;;;;;;-0.10;80.41;94181.31;4361662;32;20259;-59
2024/01/15 07:20:09;;;;;;;1.42;1.35;;;;;;;0.05;80.65;94162.31;4370248;32;20189;-59
2024/01/15 07:22:35;;;;;;;1.52;1.52;;;;;;;0.05;79.38;94156.34;4355008;32;20234;-59
2024/01/15 07:25:01;;;;;;;1.50;1.40;;;;;;;0.12;79.49;94167.31;4342108;32;20260;-59
2024/01/15 07:27:26;;;;;;;1.77;1.67;;;;;;;-0.04;80.26;94175.09;4368387;32;20199;-58
2024/01/15 07:29:53;;;;;;;0.93;0.93;;;;;;;-0.11;80.41;94179.75;4336099;32;20189;-58
2024/01/15 07:32:18;;;;;;;1.40;1.40;;;;;;;0.05;80.45;94171.97;4327095;32;20227;-58
2024/01/15 07:34:44;;;;;;;1.90;1.80;;;;;;;-0.06;80.99;94174.56;4347488;32;20188;-58
2024/01/15 07:37:13;;;;;;;1.80;1.70;;;;;;;-0.08;81.78;94178.47;4346790;32;20219;-59
2024/01/15 07:39:39;;;;;;;4.12;0.62;;;;;;;-0.26;81.77;94169.25;4374887;32;20224;-60
2024/01/15 07:42:06;;;;;;;2.10;1.10;;;;;;;-0.23;82.22;94165.38;4326404;32;20223;-68
2024/01/15 07:44:31;;;;;;;2.87;1.67;;;;;;;3.34;100.00;94141.38;4351146;32;20413;-68
2024/01/15 07:46:57;;;;;;;5.77;2.27;;;;;;;6.56;100.00;94148.22;4312308;32;20282;-68
2024/01/15 07:49:23;;;;;;;1.27;1.27;;;;;;;7.39;95.03;94148.69;4361961;32;20230;-69
2024/01/15 07:51:49;;;;;;;1.77;1.63;;;;;;;8.18;80.45;94138.91;4376538;32;20188;-68
2024/01/15 07:54:15;;;;;;;1.63;1.53;;;;;;;8.66;72.26;94143.38;4352776;32;20330;-69
2024/01/15 07:56:57;;;;;;;1.50;1.40;;;;;;;8.73;55.75;94148.97;4355423;32;20258;-68
2024/01/15 07:59:24;;;;;;;2.00;1.90;;;;;;;9.00;54.03;94152.41;4350130;32;20288;-68
2024/01/15 08:01:50;;;;;;;1.77;1.67;;;;;;;9.47;53.99;94148.00;4350492;32;20292;-69
2024/01/15 08:04:16;;;;;;;1.30;1.30;;;;;;;9.54;51.52;94146.44;4353919;32;20351;-69
2024/01/15 08:06:43;;;;;;;1.57;1.47;;;;;;;9.62;51.85;94134.25;4363017;32;20268;-69
2024/01/15 08:09:13;;;;;;;1.03;1.03;;;;;;;9.73;51.74;94122.25;4360952;32;20202;-66
2024/01/15 08:11:42;;;;;;;2.93;2.07;;;;;;;9.83;60.06;94123.75;4356078;32;20201;-68
2024/01/15 08:14:11;;;;;;;1.93;1.83;;;;;;;10.69;60.64;94123.31;4361277;32;20197;-60
2024/01/15 08:16:38;;;;;;;1.77;1.67;;;;;;;9.06;47.73;94132.66;4355328;32;20184;-61
2024/01/15 08:19:05;;;;;;;2.40;2.20;;;;;;;6.30;53.78;94131.41;4370762;32;20185;-59
2024/01/15 08:21:35;;;;;;;1.03;1.03;;;;;;;4.13;60.28;94140.78;4344242;32;20273;-60
2024/01/15 08:24:02;;;;;;;1.93;1.83;;;;;;;3.03;66.14;94140.91;4350830;32;20276;-60
2024/01/15 08:26:29;;;;;;;3.37;2.47;;;;;;;2.55;69.34;94148.56;4366603;32;20291;-58
2024/01/15 08:28:54;;;;;;;1.23;1.23;;;;;;;2.24;70.39;94141.97;4325497;32;20355;-60
2024/01/15 08:31:20;;;;;;;1.63;1.53;;;;;;;1.78;73.13;94139.56;4350792;32;20280;-59
2024/01/15 08:33:45;;;;;;;2.27;1.77;;;;;;;1.79;73.96;94135.91;4371637;32;20196;-58
2024/01/15 08:36:12;;;;;;;3.17;1.50;;;;;;;1.55;73.33;94137.56;4340544;32;20231;-63
2024/01/15 08:38:38;;;;;;;1.07;0.73;;;;;;;1.14;75.61;94135.03;4332818;32;20185;-59
2024/01/15 08:41:05;;;;;;;3.80;1.90;;;;;;;0.88;77.39;94149.91;4325625;32;20284;-59
2024/01/15 08:43:31;;;;;;;2.13;1.97;;;;;;;0.87;78.77;94147.56;4357134;32;20222;-58
2024/01/15 08:45:59;;;;;;;1.50;1.50;;;;;;;1.07;77.78;94144.94;4380142;32;20394;-57
2024/01/15 08:48:27;;;;;;;1.03;0.60;;;;;;;1.04;77.38;94151.47;4366195;32;20330;-58
2024/01/15 08:50:54;;;;;;;1.40;1.30;;;;;;;0.88;77.22;94144.69;4344928;32;20288;-58
2024/01/15 08:53:20;;;;;;;1.30;1.30;;;;;;;0.77;78.48;94142.38;4373096;32;20319;-58
2024/01/15 08:55:47;;;;;;;2.10;2.00;;;;;;;0.62;79.25;94148.37;4357544;32;20299;-59
2024/01/15 08:58:15;;;;;;;1.83;1.70;;;;;;;0.74;78.95;94148.09;4360988;32;20184;-58
2024/01/15 09:00:42;;;;;;;3.50;1.83;;;;;;;0.87;79.27;94142.34;4335886;32;20277;-59
2024/01/15 09:03:10;;;;;;;2.00;1.60;;;;;;;0.94;78.92;94145.50;4369931;32;20294;-58
2024/01/15 09:05:36;;;;;;;1.63;1.53;;;;;;;1.11;78.25;94143.38;4365211;32;20314;-58
2024/01/15 09:08:03;;;;;;;1.90;1.80;;;;;;;0.85;78.65;94150.44;4344513;32;20280;-58
2024/01/15 09:10:29;;;;;;;2.43;2.23;;;;;;;0.98;79.25;94143.94;4329131;32;20248;-58
2024/01/15 09:12:57;;;;;;;3.63;1.40;;;;;;;0.89;78.44;94142.88;4342075;32;21876;-61
2024/01/15 09:15:24;;;;;;;0.80;0.80;;;;;;;1.13;77.63;94137.91;4354572;32;20301;-59
2024/01/15 09:17:49;;;;;;;4.20;2.60;;;;;;;1.02;77.98;94150.19;4344752;32;20302;-58
2024/01/15 09:20:15;;;;;;;1.63;1.53;;;;;;;0.97;78.32;94153.59;4348448;32;20292;-58
2024/01/15 09:22:42;;;;;;;1.90;1.80;;;;;;;0.96;78.85;94151.25;4342605;32;20211;-59
2024/01/15 09:25:13;;;;;;;2.47;2.27;;;;;;;0.99;78.52;94150.72;4340815;32;20285;-58
2024/01/15 09:27:39;;;;;;;2.07;1.97;;;;;;;1.14;77.62;94145.47;4351077;32;20303;-59
2024/01/15 09:30:05;;;;;;;1.57;1.47;;;;;;;1.32;77.25;94157.97;4366904;32;20280;-59
2024/01/15 09:32:32;;;;;;;2.87;1.23;;;;;;;0.95;78.12;94162.72;4338839;32;20189;-58
2024/01/15 09:34:59;;;;;;;2.87;1.97;;;;;;;0.87;78.93;94152.78;4360192;32;20272;-58
2024/01/15 09:37:30;;;;;;;3.53;2.53;;;;;;;1.07;77.83;94157.22;4337627;32;20331;-59
2024/01/15 09:39:56;;;;;;;1.50;1.20;;;;;;;1.26;77.13;94148.56;4356671;32;20366;-58
2024/01/15 09:42:29;;;;;;;1.27;1.27;;;;;;;1.00;77.75;94157.50;4337869;32;20335;-59
2024/01/15 09:44:57;;;;;;;1.30;1.30;;;;;;;1.09;76.44;94155.91;4361328;32;20184;-57
2024/01/15 09:47:24;;;;;;;1.33;1.33;;;;;;;1.44;75.87;94156.94;4371975;32;20306;-58
2024/01/15 09:49:53;;;;;;;0.60;0.60;;;;;;;1.75;74.48;94153.16;4375307;32;20388;-59
2024/01/15 09:52:19;;;;;;;0.90;0.90;;;;;;;1.44;73.91;94151.69;4318288;32;20282;-59
2024/01/15 09:54:46;;;;;;;2.43;2.27;;;;;;;1.69;73.10;94149.00;4338153;32;20284;-58
2024/01/15 09:57:14;;;;;;;1.30;1.30;;;;;;;1.70;73.58;94147.94;4353773;32;20300;-58
2024/01/15 09:59:42;;;;;;;1.47;1.40;;;;;;;1.53;73.92;94160.53;4350032;32;20303;-58
2024/01/15 10:02:14;;;;;;;1.13;1.13;;;;;;;1.67;73.45;94156.31;4327951;32;20288;-58
2024/01/15 10:04:40;;;;;;;1.37;1.27;;;;;;;1.47;72.94;94146.69;4340326;32;20285;-58
2024/01/15 10:07:08;;;;;;;2.20;1.63;;;;;;;1.60;72.25;94137.53;4362521;32;20385;-59
2024/01/15 10:09:35;;;;;;;2.07;1.30;;;;;;;1.55;72.96;94142.78;4390575;32;20189;-58
2024/01/15 10:12:02;;;;;;;0.50;0.50;;;;;;;1.66;73.24;94142.47;4359326;32;20410;-59
2024/01/15 10:14:50;;;;;;;1.03;1.03;;;;;;;1.91;71.11;94135.56;4338067;32;20285;-58
2024/01/15 10:17:15;;;;;;;0.83;0.83;;;;;;;2.02;71.43;94126.66;4371723;32;20291;-58
2024/01/15 10:19:50;;;;;;;0.97;0.90;;;;;;;1.69;72.10;94120.25;4380333;32;20366;-58
2024/01/15 10:22:15;;;;;;;1.80;1.70;;;;;;;1.55;72.35;94121.88;4363022;32;20247;-58
2024/01/15 10:24:43;;;;;;;0.63;0.63;;;;;;;1.80;72.59;94124.41;4359628;32;20319;-58
2024/01/15 10:27:15;;;;;;;0.83;0.83;;;;;;;1.67;72.06;94117.13;4345182;32;20376;-59
2024/01/15 10:29:42;;;;;;;0.77;0.77;;;;;;;1.81;73.28;94117.34;4357235;32;20280;-58
2024/01/15 10:32:08;;;;;;;1.90;1.60;;;;;;;1.57;73.71;94112.72;4384799;32;20372;-59
2024/01/15 10:34:42;;;;;;;1.10;1.07;;;;;;;1.64;73.02;94105.38;4324130;32;20273;-58
2024/01/15 10:37:09;;;;;;;1.87;1.70;;;;;;;1.44;74.16;94100.22;4314023;32;20286;-59
2024/01/15 10:39:39;;;;;;;2.00;1.47;;;;;;;1.55;73.80;94085.28;4328075;32;20330;-58
2024/01/15 10:42:06;;;;;;;2.10;1.60;;;;;;;1.57;74.12;94091.03;4281574;32;20427;-58
2024/01/15 10:44:36;;;;;;;1.57;1.47;;;;;;;1.44;74.03;94089.78;4361174;32;20290;-58
2024/01/15 10:47:07;;;;;;;2.37;2.00;;;;;;;1.81;74.03;94073.69;4358871;32;20349;-58
2024/01/15 10:49:32;;;;;;;0.63;0.63;;;;;;;1.46;73.96;94082.44;4355670;32;20307;-58
2024/01/15 10:52:01;;;;;;;1.80;1.13;;;;;;;1.57;73.64;94083.19;4329277;32;20296;-58
2024/01/15 10:54:27;;;;;;;0.70;0.70;;;;;;;1.70;73.20;94096.44;4358963;32;20263;-58
2024/01/15 10:56:53;;;;;;;0.90;0.90;;;;;;;1.79;72.80;94090.69;4367189;32;20350;-58
2024/01/15 10:59:27;;;;;;;0.57;0.57;;;;;;;1.60;72.56;94093.91;4354855;32;20209;-58
2024/01/15 11:01:53;;;;;;;0.73;0.73;;;;;;;1.51;73.54;94094.69;4354134;32;20346;-58
2024/01/15 11:04:33;;;;;;;1.43;1.33;;;;;;;1.57;74.52;94077.97;4350534;32;20281;-58
2024/01/15 11:07:02;;;;;;;0.97;0.73;;;;;;;2.03;73.66;94066.25;4363312;32;20293;-58
2024/01/15 11:09:29;;;;;;;1.13;1.07;;;;;;;1.75;74.59;94073.97;4356638;32;20425;-58
2024/01/15 11:12:19;;;;;;;0.77;0.77;;;;;;;1.75;74.40;94069.53;4376022;32;20291;-58
2024/01/15 11:14:49;;;;;;;1.53;1.47;;;;;;;1.97;73.16;94056.06;4366513;32;20339;-57
2024/01/15 11:17:17;;;;;;;0.60;0.60;;;;;;;2.02;74.85;94063.91;4369669;32;20333;-58
2024/01/15 11:19:45;;;;;;;1.00;1.00;;;;;;;2.00;73.56;94071.22;4344395;32;20342;-59
2024/01/15 11:22:52;;;;;;;1.10;1.10;;;;;;;2.10;73.70;94063.31;4373073;32;20296;-58
2024/01/15 11:25:20;;;;;;;1.90;1.33;;;;;;;2.12;72.44;94050.75;4321867;32;20404;-58
2024/01/15 11:27:51;;;;;;;0.53;0.53;;;;;;;1.97;72.93;94062.09;4353647;32;20311;-58
2024/01/15 11:30:22;;;;;;;0.83;0.83;;;;;;;1.81;73.82;94068.44;4367574;32;20353;-58
2024/01/15 11:32:52;;;;;;;1.27;1.17;;;;;;;2.12;73.76;94070.87;4356814;32;20295;-59
2024/01/15 11:35:20;;;;;;;0.50;0.50;;;;;;;2.08;72.99;94074.03;4349994;32;20289;-60
2024/01/15 11:37:54;;;;;;;0.53;0.53;;;;;;;1.70;73.57;94056.47;4365965;32;20284;-59